sensor_id;sensor_type;location;lat;lon;timestamp;pressure;altitude;pressure_sealevel;temperature;humidity
13765;BME280;6953;48.810;9.204;2023-05-11T00:01:13;98584.69;;;14.76;91.48
13765;BME280;6953;48.810;9.204;2023-05-11T00:03:39;98590.72;;;14.78;90.94
13765;BME280;6953;48.810;9.204;2023-05-11T00:06:04;98355.22;;;13.53;91.14
13765;BME280;6953;48.810;9.204;2023-05-11T00:08:30;98551.94;;;14.78;91.08
13765;BME280;6953;48.810;9.204;2023-05-11T00:10:55;98480.00;;;14.39;90.98
13765;BME280;6953;48.810;9.204;2023-05-11T00:13:20;98268.63;;;13.11;90.40
13765;BME280;6953;48.810;9.204;2023-05-11T00:15:46;98531.81;;;14.65;90.47
13765;BME280;6953;48.810;9.204;2023-05-11T00:18:11;98258.72;;;13.02;90.85
13765;BME280;6953;48.810;9.204;2023-05-11T00:20:37;98511.66;;;14.52;91.01
13765;BME280;6953;48.810;9.204;2023-05-11T00:23:02;98539.41;;;14.69;91.36
13765;BME280;6953;48.810;9.204;2023-05-11T00:25:28;98539.28;;;14.71;92.04
13765;BME280;6953;48.810;9.204;2023-05-11T00:27:53;98582.38;;;14.71;91.79
13765;BME280;6953;48.810;9.204;2023-05-11T00:30:19;98460.50;;;14.29;92.14
13765;BME280;6953;48.810;9.204;2023-05-11T00:32:44;98474.81;;;14.38;92.03
13765;BME280;6953;48.810;9.204;2023-05-11T00:35:11;98562.28;;;14.81;92.16
13765;BME280;6953;48.810;9.204;2023-05-11T00:37:37;98541.69;;;14.74;91.85
13765;BME280;6953;48.810;9.204;2023-05-11T00:40:03;98533.13;;;14.83;92.10
13765;BME280;6953;48.810;9.204;2023-05-11T00:42:29;98315.03;;;13.49;91.53
13765;BME280;6953;48.810;9.204;2023-05-11T00:44:54;98534.69;;;14.85;91.65
13765;BME280;6953;48.810;9.204;2023-05-11T00:47:19;98330.63;;;13.65;91.64
13765;BME280;6953;48.810;9.204;2023-05-11T00:49:45;98504.94;;;14.71;91.54
13765;BME280;6953;48.810;9.204;2023-05-11T00:52:11;98541.56;;;14.88;91.50
13765;BME280;6953;48.810;9.204;2023-05-11T00:54:38;98543.00;;;14.92;90.93
13765;BME280;6953;48.810;9.204;2023-05-11T00:57:03;98537.84;;;14.90;90.89
13765;BME280;6953;48.810;9.204;2023-05-11T00:59:29;98554.53;;;14.91;91.01
13765;BME280;6953;48.810;9.204;2023-05-11T01:01:54;98565.84;;;14.93;90.39
13765;BME280;6953;48.810;9.204;2023-05-11T01:04:20;98527.31;;;14.78;90.65
13765;BME280;6953;48.810;9.204;2023-05-11T01:09:56;98534.53;;;14.99;89.93
13765;BME280;6953;48.810;9.204;2023-05-11T01:13:01;98538.75;;;15.02;90.12
13765;BME280;6953;48.810;9.204;2023-05-11T01:15:36;98487.31;;;14.71;90.21
13765;BME280;6953;48.810;9.204;2023-05-11T01:20:48;98484.53;;;14.73;90.20
13765;BME280;6953;48.810;9.204;2023-05-11T01:31:31;98259.47;;;13.52;90.47
13765;BME280;6953;48.810;9.204;2023-05-11T01:34:01;98445.09;;;14.59;89.66
13765;BME280;6953;48.810;9.204;2023-05-11T01:36:32;98444.97;;;14.60;89.67
13765;BME280;6953;48.810;9.204;2023-05-11T01:39:01;98327.59;;;13.94;89.37
13765;BME280;6953;48.810;9.204;2023-05-11T01:41:28;98517.72;;;15.00;89.88
13765;BME280;6953;48.810;9.204;2023-05-11T01:43:59;98463.53;;;14.71;89.51
13765;BME280;6953;48.810;9.204;2023-05-11T01:46:29;98484.84;;;14.81;89.59
13765;BME280;6953;48.810;9.204;2023-05-11T01:48:57;98529.53;;;15.07;89.65
13765;BME280;6953;48.810;9.204;2023-05-11T01:51:26;98455.22;;;14.65;89.64
13765;BME280;6953;48.810;9.204;2023-05-11T01:53:53;98516.88;;;15.00;90.13
13765;BME280;6953;48.810;9.204;2023-05-11T01:56:20;98264.66;;;13.54;89.91
13765;BME280;6953;48.810;9.204;2023-05-11T01:58:46;98341.31;;;13.99;89.55
13765;BME280;6953;48.810;9.204;2023-05-11T02:01:15;98530.16;;;15.11;89.99
13765;BME280;6953;48.810;9.204;2023-05-11T02:03:42;98279.72;;;13.64;90.14
13765;BME280;6953;48.810;9.204;2023-05-11T02:06:12;98532.69;;;15.12;90.08
13765;BME280;6953;48.810;9.204;2023-05-11T02:08:40;98319.28;;;13.88;90.12
13765;BME280;6953;48.810;9.204;2023-05-11T02:11:06;98531.84;;;15.12;89.90
13765;BME280;6953;48.810;9.204;2023-05-11T02:13:33;98213.38;;;13.22;89.91
13765;BME280;6953;48.810;9.204;2023-05-11T02:16:01;98495.06;;;14.85;90.47
13765;BME280;6953;48.810;9.204;2023-05-11T02:18:27;98548.63;;;15.11;89.97
13765;BME280;6953;48.810;9.204;2023-05-11T02:20:55;98542.53;;;15.10;90.11
13765;BME280;6953;48.810;9.204;2023-05-11T02:23:21;98542.63;;;15.09;90.09
13765;BME280;6953;48.810;9.204;2023-05-11T02:25:51;98524.69;;;15.01;89.68
13765;BME280;6953;48.810;9.204;2023-05-11T02:28:17;98346.66;;;13.98;89.55
13765;BME280;6953;48.810;9.204;2023-05-11T02:30:48;98553.94;;;15.11;89.66
13765;BME280;6953;48.810;9.204;2023-05-11T02:33:19;98465.44;;;14.69;90.19
13765;BME280;6953;48.810;9.204;2023-05-11T02:35:46;98517.72;;;15.00;90.22
13765;BME280;6953;48.810;9.204;2023-05-11T02:38:14;98433.84;;;14.45;89.82
13765;BME280;6953;48.810;9.204;2023-05-11T02:40:49;98516.75;;;15.01;90.01
13765;BME280;6953;48.810;9.204;2023-05-11T02:43:20;98530.41;;;15.08;89.87
13765;BME280;6953;48.810;9.204;2023-05-11T02:45:49;98568.34;;;15.07;89.99
13765;BME280;6953;48.810;9.204;2023-05-11T02:48:22;98274.47;;;13.52;89.77
13765;BME280;6953;48.810;9.204;2023-05-11T02:50:51;98284.56;;;13.58;89.84
13765;BME280;6953;48.810;9.204;2023-05-11T02:53:21;98524.28;;;14.95;90.04
13765;BME280;6953;48.810;9.204;2023-05-11T02:55:49;98278.44;;;13.57;90.11
13765;BME280;6953;48.810;9.204;2023-05-11T02:58:15;98528.19;;;15.02;90.44
13765;BME280;6953;48.810;9.204;2023-05-11T03:00:40;98314.25;;;13.72;90.00
13765;BME280;6953;48.810;9.204;2023-05-11T03:03:06;98331.75;;;13.86;90.04
13765;BME280;6953;48.810;9.204;2023-05-11T03:05:31;98525.78;;;14.99;90.68
13765;BME280;6953;48.810;9.204;2023-05-11T03:07:58;98281.81;;;13.59;90.47
13765;BME280;6953;48.810;9.204;2023-05-11T03:10:25;98531.78;;;15.01;90.96
13765;BME280;6953;48.810;9.204;2023-05-11T03:12:52;98523.13;;;14.99;90.77
13765;BME280;6953;48.810;9.204;2023-05-11T03:15:18;98475.06;;;14.70;90.40
13765;BME280;6953;48.810;9.204;2023-05-11T03:17:45;98521.44;;;14.98;90.04
13765;BME280;6953;48.810;9.204;2023-05-11T03:20:11;98534.88;;;14.95;89.66
13765;BME280;6953;48.810;9.204;2023-05-11T03:22:37;98519.13;;;14.93;89.80
13765;BME280;6953;48.810;9.204;2023-05-11T03:25:04;98531.41;;;14.94;89.55
13765;BME280;6953;48.810;9.204;2023-05-11T03:27:32;98511.53;;;14.89;89.52
13765;BME280;6953;48.810;9.204;2023-05-11T03:29:59;98513.94;;;14.92;89.28
13765;BME280;6953;48.810;9.204;2023-05-11T03:32:25;98518.50;;;14.90;89.46
13765;BME280;6953;48.810;9.204;2023-05-11T03:34:51;98372.53;;;14.05;89.16
13765;BME280;6953;48.810;9.204;2023-05-11T03:37:17;98483.31;;;14.66;89.27
13765;BME280;6953;48.810;9.204;2023-05-11T03:39:46;98529.06;;;14.90;89.31
13765;BME280;6953;48.810;9.204;2023-05-11T03:42:13;98292.78;;;13.53;89.26
13765;BME280;6953;48.810;9.204;2023-05-11T03:44:40;98530.78;;;14.78;89.40
13765;BME280;6953;48.810;9.204;2023-05-11T03:47:07;98498.16;;;14.79;89.62
13765;BME280;6953;48.810;9.204;2023-05-11T03:49:35;98447.47;;;14.39;89.62
13765;BME280;6953;48.810;9.204;2023-05-11T03:52:01;98462.13;;;14.55;89.35
13765;BME280;6953;48.810;9.204;2023-05-11T03:54:27;98507.44;;;14.85;89.29
13765;BME280;6953;48.810;9.204;2023-05-11T03:56:52;98522.16;;;14.76;89.27
13765;BME280;6953;48.810;9.204;2023-05-11T03:59:18;98512.59;;;14.86;89.88
13765;BME280;6953;48.810;9.204;2023-05-11T04:01:43;98508.41;;;14.84;89.82
13765;BME280;6953;48.810;9.204;2023-05-11T04:04:09;98503.00;;;14.85;89.74
13765;BME280;6953;48.810;9.204;2023-05-11T04:06:34;98501.44;;;14.83;90.16
13765;BME280;6953;48.810;9.204;2023-05-11T04:09:00;98280.56;;;13.52;89.75
13765;BME280;6953;48.810;9.204;2023-05-11T04:11:25;98543.56;;;14.84;90.01
13765;BME280;6953;48.810;9.204;2023-05-11T04:13:51;98507.31;;;14.86;90.24
13765;BME280;6953;48.810;9.204;2023-05-11T04:16:17;98505.41;;;14.88;90.46
13765;BME280;6953;48.810;9.204;2023-05-11T04:18:42;98503.50;;;14.90;90.62
13765;BME280;6953;48.810;9.204;2023-05-11T04:21:07;98474.84;;;14.73;90.23
13765;BME280;6953;48.810;9.204;2023-05-11T04:23:33;98506.16;;;14.90;90.43
13765;BME280;6953;48.810;9.204;2023-05-11T04:25:58;98473.16;;;14.72;90.26
13765;BME280;6953;48.810;9.204;2023-05-11T04:28:24;98492.56;;;14.84;90.02
13765;BME280;6953;48.810;9.204;2023-05-11T04:30:53;98532.22;;;14.95;90.20
13765;BME280;6953;48.810;9.204;2023-05-11T04:33:19;98509.31;;;14.95;90.06
13765;BME280;6953;48.810;9.204;2023-05-11T04:35:44;98453.38;;;14.55;90.28
13765;BME280;6953;48.810;9.204;2023-05-11T04:38:10;98508.97;;;15.00;90.46
13765;BME280;6953;48.810;9.204;2023-05-11T04:40:35;98513.28;;;15.01;89.73
13765;BME280;6953;48.810;9.204;2023-05-11T04:43:00;98513.38;;;14.99;89.68
13765;BME280;6953;48.810;9.204;2023-05-11T04:45:25;98543.75;;;14.94;88.98
13765;BME280;6953;48.810;9.204;2023-05-11T04:47:51;98505.94;;;14.93;89.36
13765;BME280;6953;48.810;9.204;2023-05-11T04:50:16;98526.84;;;14.96;89.23
13765;BME280;6953;48.810;9.204;2023-05-11T04:52:42;98512.56;;;14.99;88.71
13765;BME280;6953;48.810;9.204;2023-05-11T04:55:07;98508.41;;;14.84;88.75
13765;BME280;6953;48.810;9.204;2023-05-11T04:57:32;98502.47;;;14.80;88.50
13765;BME280;6953;48.810;9.204;2023-05-11T04:59:58;98259.69;;;13.49;87.77
13765;BME280;6953;48.810;9.204;2023-05-11T05:02:24;98536.56;;;14.96;88.04
13765;BME280;6953;48.810;9.204;2023-05-11T05:04:50;98521.38;;;15.10;88.07
13765;BME280;6953;48.810;9.204;2023-05-11T05:07:15;98302.38;;;13.90;88.12
13765;BME280;6953;48.810;9.204;2023-05-11T05:09:40;98520.25;;;15.25;87.90
13765;BME280;6953;48.810;9.204;2023-05-11T05:12:06;98267.94;;;13.81;87.12
13765;BME280;6953;48.810;9.204;2023-05-11T05:14:31;98249.69;;;13.78;87.38
13765;BME280;6953;48.810;9.204;2023-05-11T05:16:56;98517.56;;;15.38;86.54
13765;BME280;6953;48.810;9.204;2023-05-11T05:19:24;98524.94;;;15.45;86.44
13765;BME280;6953;48.810;9.204;2023-05-11T05:21:50;98522.44;;;15.55;86.37
13765;BME280;6953;48.810;9.204;2023-05-11T05:24:15;98535.06;;;15.62;86.05
13765;BME280;6953;48.810;9.204;2023-05-11T05:26:40;98284.41;;;14.31;85.63
13765;BME280;6953;48.810;9.204;2023-05-11T05:29:06;98530.22;;;15.79;85.48
13765;BME280;6953;48.810;9.204;2023-05-11T05:31:31;98504.19;;;15.63;84.61
13765;BME280;6953;48.810;9.204;2023-05-11T05:33:57;98552.31;;;15.78;84.55
13765;BME280;6953;48.810;9.204;2023-05-11T05:36:22;98530.72;;;15.84;84.33
13765;BME280;6953;48.810;9.204;2023-05-11T05:38:47;98533.84;;;15.89;84.75
13765;BME280;6953;48.810;9.204;2023-05-11T05:41:13;98311.69;;;14.66;84.23
13765;BME280;6953;48.810;9.204;2023-05-11T05:43:38;98310.38;;;14.71;84.33
13765;BME280;6953;48.810;9.204;2023-05-11T05:46:03;98351.25;;;15.00;84.75
13765;BME280;6953;48.810;9.204;2023-05-11T05:48:29;98539.78;;;16.15;84.54
13765;BME280;6953;48.810;9.204;2023-05-11T05:50:54;98540.28;;;16.20;84.09
13765;BME280;6953;48.810;9.204;2023-05-11T05:53:19;98534.63;;;16.24;83.48
13765;BME280;6953;48.810;9.204;2023-05-11T05:55:45;98474.41;;;15.93;82.59
13765;BME280;6953;48.810;9.204;2023-05-11T05:58:10;98539.22;;;16.44;82.80
13765;BME280;6953;48.810;9.204;2023-05-11T06:00:36;98569.69;;;16.50;81.73
13765;BME280;6953;48.810;9.204;2023-05-11T06:03:02;98543.06;;;16.51;80.94
13765;BME280;6953;48.810;9.204;2023-05-11T06:05:27;98508.06;;;16.37;80.69
13765;BME280;6953;48.810;9.204;2023-05-11T06:07:53;98287.53;;;15.05;80.65
13765;BME280;6953;48.810;9.204;2023-05-11T06:10:18;98551.00;;;16.62;81.18
13765;BME280;6953;48.810;9.204;2023-05-11T06:12:43;98544.03;;;16.61;80.76
13765;BME280;6953;48.810;9.204;2023-05-11T06:15:09;98542.09;;;16.63;80.50
13765;BME280;6953;48.810;9.204;2023-05-11T06:17:34;98542.34;;;16.60;80.34
13765;BME280;6953;48.810;9.204;2023-05-11T06:20:00;98554.50;;;16.63;80.10
13765;BME280;6953;48.810;9.204;2023-05-11T06:22:25;98305.56;;;15.22;79.91
13765;BME280;6953;48.810;9.204;2023-05-11T06:24:50;98546.19;;;16.67;79.75
13765;BME280;6953;48.810;9.204;2023-05-11T06:27:16;98536.91;;;16.72;79.83
13765;BME280;6953;48.810;9.204;2023-05-11T06:29:41;98544.72;;;16.85;79.71
13765;BME280;6953;48.810;9.204;2023-05-11T06:32:06;98394.94;;;15.95;79.23
13765;BME280;6953;48.810;9.204;2023-05-11T06:34:32;98548.22;;;16.64;79.37
13765;BME280;6953;48.810;9.204;2023-05-11T06:36:58;98300.28;;;15.22;79.56
13765;BME280;6953;48.810;9.204;2023-05-11T06:39:23;98493.00;;;16.37;79.47
13765;BME280;6953;48.810;9.204;2023-05-11T06:41:50;98545.59;;;16.64;79.69
13765;BME280;6953;48.810;9.204;2023-05-11T06:44:16;98552.47;;;16.66;79.86
13765;BME280;6953;48.810;9.204;2023-05-11T06:46:41;98549.56;;;16.69;80.28
13765;BME280;6953;48.810;9.204;2023-05-11T06:49:07;98531.03;;;16.58;80.48
13765;BME280;6953;48.810;9.204;2023-05-11T06:51:33;98503.94;;;16.44;80.96
13765;BME280;6953;48.810;9.204;2023-05-11T06:53:58;98542.09;;;16.52;81.18
13765;BME280;6953;48.810;9.204;2023-05-11T06:56:23;98585.69;;;16.48;82.13
13765;BME280;6953;48.810;9.204;2023-05-11T06:58:49;98556.53;;;16.37;83.01
13765;BME280;6953;48.810;9.204;2023-05-11T07:01:14;98543.16;;;16.17;84.28
13765;BME280;6953;48.810;9.204;2023-05-11T07:03:40;98553.13;;;16.02;85.00
13765;BME280;6953;48.810;9.204;2023-05-11T07:06:05;98583.72;;;15.83;85.74
13765;BME280;6953;48.810;9.204;2023-05-11T07:08:30;98292.81;;;14.25;86.78
13765;BME280;6953;48.810;9.204;2023-05-11T07:10:56;98373.19;;;14.79;87.17
13765;BME280;6953;48.810;9.204;2023-05-11T07:13:21;98499.59;;;15.54;87.65
13765;BME280;6953;48.810;9.204;2023-05-11T07:15:46;98556.94;;;15.87;87.81
13765;BME280;6953;48.810;9.204;2023-05-11T07:18:13;98558.34;;;15.80;88.09
13765;BME280;6953;48.810;9.204;2023-05-11T07:20:40;98560.88;;;15.82;88.46
13765;BME280;6953;48.810;9.204;2023-05-11T07:23:05;98292.28;;;14.20;87.22
13765;BME280;6953;48.810;9.204;2023-05-11T07:25:31;98481.69;;;15.23;88.10
13765;BME280;6953;48.810;9.204;2023-05-11T07:27:56;98561.69;;;15.71;88.69
13765;BME280;6953;48.810;9.204;2023-05-11T07:30:22;98483.44;;;15.35;88.80
13765;BME280;6953;48.810;9.204;2023-05-11T07:32:48;98351.59;;;14.51;89.26
13765;BME280;6953;48.810;9.204;2023-05-11T07:35:14;98501.19;;;15.33;89.58
13765;BME280;6953;48.810;9.204;2023-05-11T07:37:39;98559.69;;;15.86;90.05
13765;BME280;6953;48.810;9.204;2023-05-11T07:40:05;98566.84;;;16.07;89.50
13765;BME280;6953;48.810;9.204;2023-05-11T07:42:31;98386.56;;;14.99;89.80
13765;BME280;6953;48.810;9.204;2023-05-11T07:44:56;98509.63;;;15.72;89.64
13765;BME280;6953;48.810;9.204;2023-05-11T07:47:22;98458.38;;;15.62;89.79
13765;BME280;6953;48.810;9.204;2023-05-11T07:49:47;98603.16;;;16.05;89.35
13765;BME280;6953;48.810;9.204;2023-05-11T07:52:13;98602.91;;;15.97;90.52
13765;BME280;6953;48.810;9.204;2023-05-11T07:54:38;98569.81;;;15.92;92.00
13765;BME280;6953;48.810;9.204;2023-05-11T07:57:04;98557.78;;;15.88;91.62
13765;BME280;6953;48.810;9.204;2023-05-11T07:59:30;98537.03;;;15.71;91.80
13765;BME280;6953;48.810;9.204;2023-05-11T08:01:55;98313.94;;;14.36;91.60
13765;BME280;6953;48.810;9.204;2023-05-11T08:04:22;98219.16;;;13.86;91.40
13765;BME280;6953;48.810;9.204;2023-05-11T08:06:47;98281.91;;;14.30;90.90
13765;BME280;6953;48.810;9.204;2023-05-11T08:09:14;98548.84;;;15.78;91.61
13765;BME280;6953;48.810;9.204;2023-05-11T08:11:39;98401.44;;;14.89;92.17
13765;BME280;6953;48.810;9.204;2023-05-11T08:14:06;98562.97;;;16.11;92.27
13765;BME280;6953;48.810;9.204;2023-05-11T08:16:31;98573.00;;;16.19;91.35
13765;BME280;6953;48.810;9.204;2023-05-11T08:18:57;98537.22;;;16.13;90.69
13765;BME280;6953;48.810;9.204;2023-05-11T08:21:22;98307.66;;;14.84;91.38
13765;BME280;6953;48.810;9.204;2023-05-11T08:23:48;98531.06;;;15.91;91.67
13765;BME280;6953;48.810;9.204;2023-05-11T08:26:15;98287.72;;;14.80;92.38
13765;BME280;6953;48.810;9.204;2023-05-11T08:28:40;98296.16;;;14.96;91.93
13765;BME280;6953;48.810;9.204;2023-05-11T08:31:05;98384.78;;;15.45;91.94
13765;BME280;6953;48.810;9.204;2023-05-11T08:33:31;98349.78;;;15.31;92.46
13765;BME280;6953;48.810;9.204;2023-05-11T08:35:57;98566.06;;;16.51;92.21
13765;BME280;6953;48.810;9.204;2023-05-11T08:38:22;98561.47;;;16.64;92.96
13765;BME280;6953;48.810;9.204;2023-05-11T08:40:50;98550.63;;;16.67;92.19
13765;BME280;6953;48.810;9.204;2023-05-11T08:43:17;98565.44;;;16.80;91.95
13765;BME280;6953;48.810;9.204;2023-05-11T08:45:44;98568.81;;;16.82;92.20
13765;BME280;6953;48.810;9.204;2023-05-11T08:48:15;98458.56;;;16.15;92.80
13765;BME280;6953;48.810;9.204;2023-05-11T08:50:45;98587.59;;;16.79;92.67
13765;BME280;6953;48.810;9.204;2023-05-11T08:53:12;98480.22;;;16.09;92.71
13765;BME280;6953;48.810;9.204;2023-05-11T08:55:38;98562.56;;;16.83;93.49
13765;BME280;6953;48.810;9.204;2023-05-11T08:58:06;98322.53;;;15.63;92.22
13765;BME280;6953;48.810;9.204;2023-05-11T09:00:32;98439.56;;;16.32;92.15
13765;BME280;6953;48.810;9.204;2023-05-11T09:02:59;98562.53;;;17.05;92.29
13765;BME280;6953;48.810;9.204;2023-05-11T09:05:24;98538.72;;;16.61;88.17
13765;BME280;6953;48.810;9.204;2023-05-11T09:07:52;98568.22;;;16.67;88.98
13765;BME280;6953;48.810;9.204;2023-05-11T09:10:19;98577.38;;;16.42;89.38
13765;BME280;6953;48.810;9.204;2023-05-11T09:12:45;98569.69;;;16.50;89.90
13765;BME280;6953;48.810;9.204;2023-05-11T09:15:11;98501.75;;;16.16;89.86
13765;BME280;6953;48.810;9.204;2023-05-11T09:17:36;98546.94;;;16.47;89.67
13765;BME280;6953;48.810;9.204;2023-05-11T09:20:03;98324.28;;;15.19;88.93
13765;BME280;6953;48.810;9.204;2023-05-11T09:22:33;98450.72;;;15.92;89.02
13765;BME280;6953;48.810;9.204;2023-05-11T09:25:00;98575.22;;;16.58;88.53
13765;BME280;6953;48.810;9.204;2023-05-11T09:27:26;98398.25;;;15.31;88.32
13765;BME280;6953;48.810;9.204;2023-05-11T09:29:54;98550.19;;;16.51;89.06
13765;BME280;6953;48.810;9.204;2023-05-11T09:32:19;98568.84;;;16.60;89.08
13765;BME280;6953;48.810;9.204;2023-05-11T09:34:45;98548.34;;;16.51;89.84
13765;BME280;6953;48.810;9.204;2023-05-11T09:37:17;98555.31;;;16.74;89.63
13765;BME280;6953;48.810;9.204;2023-05-11T09:39:43;98320.84;;;15.29;88.72
13765;BME280;6953;48.810;9.204;2023-05-11T09:42:20;98565.34;;;16.81;88.15
13765;BME280;6953;48.810;9.204;2023-05-11T09:44:46;98584.75;;;16.71;88.90
13765;BME280;6953;48.810;9.204;2023-05-11T09:47:14;98495.28;;;16.42;90.00
13765;BME280;6953;48.810;9.204;2023-05-11T09:49:41;98564.00;;;16.87;89.36
13765;BME280;6953;48.810;9.204;2023-05-11T09:52:14;98564.72;;;16.89;89.99
13765;BME280;6953;48.810;9.204;2023-05-11T09:54:41;98500.19;;;16.68;90.23
13765;BME280;6953;48.810;9.204;2023-05-11T09:57:24;98317.00;;;15.88;89.91
13765;BME280;6953;48.810;9.204;2023-05-11T09:59:51;98557.88;;;17.40;90.19
13765;BME280;6953;48.810;9.204;2023-05-11T10:02:24;98328.84;;;16.15;90.54
13765;BME280;6953;48.810;9.204;2023-05-11T10:04:51;98507.59;;;17.27;88.21
13765;BME280;6953;48.810;9.204;2023-05-11T10:07:33;98553.63;;;17.48;88.11
13765;BME280;6953;48.810;9.204;2023-05-11T10:10:05;98574.25;;;17.76;88.58
13765;BME280;6953;48.810;9.204;2023-05-11T10:12:31;98559.06;;;17.67;86.72
13765;BME280;6953;48.810;9.204;2023-05-11T10:15:01;98557.75;;;17.73;85.79
13765;BME280;6953;48.810;9.204;2023-05-11T10:17:28;98530.41;;;17.30;86.49
13765;BME280;6953;48.810;9.204;2023-05-11T10:19:55;98576.09;;;17.65;84.61
13765;BME280;6953;48.810;9.204;2023-05-11T10:22:24;98299.53;;;15.96;83.92
13765;BME280;6953;48.810;9.204;2023-05-11T10:24:50;98587.03;;;17.40;84.29
13765;BME280;6953;48.810;9.204;2023-05-11T10:27:17;98500.09;;;17.12;84.63
13765;BME280;6953;48.810;9.204;2023-05-11T10:29:43;98558.25;;;17.67;84.20
13765;BME280;6953;48.810;9.204;2023-05-11T10:32:10;98538.81;;;17.66;84.29
13765;BME280;6953;48.810;9.204;2023-05-11T10:34:36;98552.09;;;17.66;82.52
13765;BME280;6953;48.810;9.204;2023-05-11T10:37:04;98341.75;;;16.51;83.17
13765;BME280;6953;48.810;9.204;2023-05-11T10:39:29;98554.03;;;18.05;84.26
13765;BME280;6953;48.810;9.204;2023-05-11T10:45:14;98559.94;;;18.29;82.03
13765;BME280;6953;48.810;9.204;2023-05-11T10:50:24;98555.66;;;18.37;82.19
13765;BME280;6953;48.810;9.204;2023-05-11T10:53:18;98545.16;;;18.66;81.63
13765;BME280;6953;48.810;9.204;2023-05-11T10:58:53;98307.00;;;17.37;79.66
13765;BME280;6953;48.810;9.204;2023-05-11T11:01:38;98543.28;;;18.86;78.00
13765;BME280;6953;48.810;9.204;2023-05-11T11:04:06;98566.81;;;18.91;78.60
13765;BME280;6953;48.810;9.204;2023-05-11T11:06:33;98528.28;;;18.85;78.27
13765;BME280;6953;48.810;9.204;2023-05-11T11:09:03;98538.16;;;19.04;77.31
13765;BME280;6953;48.810;9.204;2023-05-11T11:11:30;98546.63;;;19.18;75.54
13765;BME280;6953;48.810;9.204;2023-05-11T11:13:57;98484.66;;;18.97;75.85
13765;BME280;6953;48.810;9.204;2023-05-11T11:16:23;98235.16;;;17.50;74.78
13765;BME280;6953;48.810;9.204;2023-05-11T11:18:50;98525.91;;;19.31;74.30
13765;BME280;6953;48.810;9.204;2023-05-11T11:21:39;98534.47;;;19.63;74.54
13765;BME280;6953;48.810;9.204;2023-05-11T11:24:42;98544.13;;;20.02;70.77
13765;BME280;6953;48.810;9.204;2023-05-11T11:27:08;98541.91;;;20.43;69.88
13765;BME280;6953;48.810;9.204;2023-05-11T11:29:34;98530.88;;;20.38;68.78
13765;BME280;6953;48.810;9.204;2023-05-11T11:34:47;98523.84;;;21.45;66.02
13765;BME280;6953;48.810;9.204;2023-05-11T11:37:16;98426.38;;;21.23;63.43
13765;BME280;6953;48.810;9.204;2023-05-11T11:42:09;98530.22;;;21.61;62.13
13765;BME280;6953;48.810;9.204;2023-05-11T11:44:35;98502.13;;;21.40;63.19
13765;BME280;6953;48.810;9.204;2023-05-11T11:47:21;98531.16;;;21.43;63.71
13765;BME280;6953;48.810;9.204;2023-05-11T11:49:49;98529.66;;;21.75;64.62
13765;BME280;6953;48.810;9.204;2023-05-11T11:54:56;98310.66;;;20.37;64.13
13765;BME280;6953;48.810;9.204;2023-05-11T12:00:02;98533.28;;;22.09;62.51
13765;BME280;6953;48.810;9.204;2023-05-11T12:02:30;98470.34;;;22.14;61.17
13765;BME280;6953;48.810;9.204;2023-05-11T12:04:59;98498.81;;;22.82;59.33
13765;BME280;6953;48.810;9.204;2023-05-11T12:07:25;98344.53;;;22.16;58.94
13765;BME280;6953;48.810;9.204;2023-05-11T12:09:57;98516.19;;;23.35;57.78
13765;BME280;6953;48.810;9.204;2023-05-11T12:12:22;98473.56;;;23.58;54.78
13765;BME280;6953;48.810;9.204;2023-05-11T12:14:47;98514.78;;;23.89;48.67
13765;BME280;6953;48.810;9.204;2023-05-11T12:17:14;98431.94;;;23.06;52.41
13765;BME280;6953;48.810;9.204;2023-05-11T12:19:44;98311.47;;;22.09;54.08
13765;BME280;6953;48.810;9.204;2023-05-11T12:22:10;98524.06;;;23.29;54.32
13765;BME280;6953;48.810;9.204;2023-05-11T12:24:38;98514.66;;;22.76;51.18
13765;BME280;6953;48.810;9.204;2023-05-11T12:27:04;98458.47;;;22.17;53.69
13765;BME280;6953;48.810;9.204;2023-05-11T12:29:29;98496.94;;;22.41;54.94
13765;BME280;6953;48.810;9.204;2023-05-11T12:31:55;98523.22;;;22.54;55.80
13765;BME280;6953;48.810;9.204;2023-05-11T12:34:21;98387.94;;;21.77;55.86
13765;BME280;6953;48.810;9.204;2023-05-11T12:36:51;98518.00;;;22.44;54.66
13765;BME280;6953;48.810;9.204;2023-05-11T12:39:19;98283.28;;;21.05;54.58
13765;BME280;6953;48.810;9.204;2023-05-11T12:41:46;98495.81;;;22.26;55.14
13765;BME280;6953;48.810;9.204;2023-05-11T12:44:14;98347.91;;;21.85;54.47
13765;BME280;6953;48.810;9.204;2023-05-11T12:46:39;98513.06;;;23.40;52.05
13765;BME280;6953;48.810;9.204;2023-05-11T12:49:05;98538.41;;;24.01;49.30
13765;BME280;6953;48.810;9.204;2023-05-11T12:51:51;98450.28;;;23.50;49.95
13765;BME280;6953;48.810;9.204;2023-05-11T12:54:32;98486.94;;;23.50;50.96
13765;BME280;6953;48.810;9.204;2023-05-11T12:56:59;98286.53;;;22.42;51.97
13765;BME280;6953;48.810;9.204;2023-05-11T12:59:30;98520.09;;;23.57;50.28
13765;BME280;6953;48.810;9.204;2023-05-11T13:02:14;98431.41;;;22.87;50.03
13765;BME280;6953;48.810;9.204;2023-05-11T13:04:41;98481.03;;;23.22;51.70
13765;BME280;6953;48.810;9.204;2023-05-11T13:07:08;98492.41;;;23.16;52.06
13765;BME280;6953;48.810;9.204;2023-05-11T13:09:34;98311.59;;;22.00;51.96
13765;BME280;6953;48.810;9.204;2023-05-11T13:12:15;98434.72;;;22.73;51.69
13765;BME280;6953;48.810;9.204;2023-05-11T13:14:49;98276.44;;;21.87;51.89
13765;BME280;6953;48.810;9.204;2023-05-11T13:17:31;98491.94;;;23.45;49.64
13765;BME280;6953;48.810;9.204;2023-05-11T13:20:16;98494.97;;;23.66;45.68
13765;BME280;6953;48.810;9.204;2023-05-11T13:22:43;98439.25;;;23.77;45.99
13765;BME280;6953;48.810;9.204;2023-05-11T13:25:08;98410.59;;;23.94;45.55
13765;BME280;6953;48.810;9.204;2023-05-11T13:27:34;98459.03;;;24.62;44.51
13765;BME280;6953;48.810;9.204;2023-05-11T13:30:01;98459.97;;;24.77;44.08
13765;BME280;6953;48.810;9.204;2023-05-11T13:32:28;98386.97;;;24.43;43.83
13765;BME280;6953;48.810;9.204;2023-05-11T13:34:53;98263.25;;;23.62;43.56
13765;BME280;6953;48.810;9.204;2023-05-11T13:37:19;98469.50;;;24.80;44.11
13765;BME280;6953;48.810;9.204;2023-05-11T13:39:44;98455.59;;;24.84;42.55
13765;BME280;6953;48.810;9.204;2023-05-11T13:42:09;98255.19;;;23.78;42.50
13765;BME280;6953;48.810;9.204;2023-05-11T13:44:35;98301.81;;;24.37;42.29